sensor_id;sensor_type;location;lat;lon;timestamp;P1;durP1;ratioP1;P2;durP2;ratioP2
12212;SDS011;6169;44.158;22.788;2023-09-12T00:02:23;8.13;;;4.00;;
12212;SDS011;6169;44.158;22.788;2023-09-12T00:07:25;11.38;;;4.65;;
12212;SDS011;6169;44.158;22.788;2023-09-12T00:12:27;13.35;;;4.28;;
12212;SDS011;6169;44.158;22.788;2023-09-12T00:17:31;5.55;;;3.35;;
12212;SDS011;6169;44.158;22.788;2023-09-12T00:22:33;6.15;;;2.63;;
12212;SDS011;6169;44.158;22.788;2023-09-12T00:27:35;4.75;;;3.10;;
12212;SDS011;6169;44.158;22.788;2023-09-12T00:32:39;4.07;;;2.97;;
12212;SDS011;6169;44.158;22.788;2023-09-12T00:37:41;4.18;;;3.25;;
12212;SDS011;6169;44.158;22.788;2023-09-12T00:42:43;8.65;;;2.90;;
12212;SDS011;6169;44.158;22.788;2023-09-12T00:47:47;5.07;;;3.35;;
12212;SDS011;6169;44.158;22.788;2023-09-12T00:52:50;5.75;;;3.53;;
12212;SDS011;6169;44.158;22.788;2023-09-12T00:57:55;4.85;;;3.22;;
12212;SDS011;6169;44.158;22.788;2023-09-12T01:02:58;12.93;;;3.70;;
12212;SDS011;6169;44.158;22.788;2023-09-12T01:08:01;4.78;;;3.15;;
12212;SDS011;6169;44.158;22.788;2023-09-12T01:13:04;3.95;;;2.78;;
12212;SDS011;6169;44.158;22.788;2023-09-12T01:18:08;9.25;;;2.88;;
12212;SDS011;6169;44.158;22.788;2023-09-12T01:23:16;6.25;;;3.22;;
12212;SDS011;6169;44.158;22.788;2023-09-12T01:28:33;7.15;;;3.03;;
12212;SDS011;6169;44.158;22.788;2023-09-12T01:33:36;10.32;;;4.07;;
12212;SDS011;6169;44.158;22.788;2023-09-12T01:38:38;4.57;;;2.80;;
12212;SDS011;6169;44.158;22.788;2023-09-12T01:43:42;4.82;;;2.58;;
12212;SDS011;6169;44.158;22.788;2023-09-12T01:48:45;3.88;;;2.67;;
12212;SDS011;6169;44.158;22.788;2023-09-12T01:53:51;4.43;;;3.00;;
12212;SDS011;6169;44.158;22.788;2023-09-12T01:58:57;7.47;;;3.10;;
12212;SDS011;6169;44.158;22.788;2023-09-12T02:04:00;5.57;;;3.13;;
12212;SDS011;6169;44.158;22.788;2023-09-12T02:09:02;5.00;;;3.40;;
12212;SDS011;6169;44.158;22.788;2023-09-12T02:14:06;5.78;;;2.60;;
12212;SDS011;6169;44.158;22.788;2023-09-12T02:19:08;4.38;;;3.00;;
12212;SDS011;6169;44.158;22.788;2023-09-12T02:24:10;6.50;;;3.20;;
12212;SDS011;6169;44.158;22.788;2023-09-12T02:29:14;5.07;;;2.63;;
12212;SDS011;6169;44.158;22.788;2023-09-12T02:34:16;6.88;;;3.33;;
12212;SDS011;6169;44.158;22.788;2023-09-12T02:39:18;6.45;;;2.70;;
12212;SDS011;6169;44.158;22.788;2023-09-12T02:44:22;7.43;;;4.03;;
12212;SDS011;6169;44.158;22.788;2023-09-12T02:49:24;6.32;;;3.15;;
12212;SDS011;6169;44.158;22.788;2023-09-12T02:54:26;6.80;;;2.70;;
12212;SDS011;6169;44.158;22.788;2023-09-12T02:59:30;5.95;;;3.80;;
12212;SDS011;6169;44.158;22.788;2023-09-12T03:04:35;4.75;;;2.83;;
12212;SDS011;6169;44.158;22.788;2023-09-12T03:09:37;5.03;;;3.15;;
12212;SDS011;6169;44.158;22.788;2023-09-12T03:14:41;5.05;;;3.28;;
12212;SDS011;6169;44.158;22.788;2023-09-12T03:19:43;5.03;;;3.40;;
12212;SDS011;6169;44.158;22.788;2023-09-12T03:24:45;7.40;;;3.72;;
12212;SDS011;6169;44.158;22.788;2023-09-12T03:29:49;6.75;;;2.60;;
12212;SDS011;6169;44.158;22.788;2023-09-12T03:34:51;4.28;;;3.40;;
12212;SDS011;6169;44.158;22.788;2023-09-12T03:39:53;5.85;;;3.17;;
12212;SDS011;6169;44.158;22.788;2023-09-12T03:44:57;6.75;;;2.92;;
12212;SDS011;6169;44.158;22.788;2023-09-12T03:49:59;7.20;;;3.45;;
12212;SDS011;6169;44.158;22.788;2023-09-12T03:55:02;10.60;;;3.80;;
12212;SDS011;6169;44.158;22.788;2023-09-12T04:00:07;4.05;;;3.58;;
12212;SDS011;6169;44.158;22.788;2023-09-12T04:05:10;4.70;;;3.17;;
12212;SDS011;6169;44.158;22.788;2023-09-12T04:10:12;4.70;;;3.80;;
12212;SDS011;6169;44.158;22.788;2023-09-12T04:15:15;5.30;;;2.97;;
12212;SDS011;6169;44.158;22.788;2023-09-12T04:20:18;4.97;;;3.03;;
12212;SDS011;6169;44.158;22.788;2023-09-12T04:25:20;5.18;;;2.83;;
12212;SDS011;6169;44.158;22.788;2023-09-12T04:30:23;8.55;;;3.15;;
12212;SDS011;6169;44.158;22.788;2023-09-12T04:35:26;7.28;;;3.50;;
12212;SDS011;6169;44.158;22.788;2023-09-12T04:40:28;5.82;;;2.63;;
12212;SDS011;6169;44.158;22.788;2023-09-12T04:45:33;9.82;;;3.60;;
12212;SDS011;6169;44.158;22.788;2023-09-12T04:50:40;9.40;;;3.60;;
12212;SDS011;6169;44.158;22.788;2023-09-12T04:55:42;6.35;;;3.15;;
12212;SDS011;6169;44.158;22.788;2023-09-12T05:00:46;8.55;;;3.28;;
12212;SDS011;6169;44.158;22.788;2023-09-12T05:05:48;5.72;;;3.25;;
12212;SDS011;6169;44.158;22.788;2023-09-12T05:10:51;4.45;;;2.80;;
12212;SDS011;6169;44.158;22.788;2023-09-12T05:15:55;6.78;;;2.95;;
12212;SDS011;6169;44.158;22.788;2023-09-12T05:20:57;10.38;;;3.45;;
12212;SDS011;6169;44.158;22.788;2023-09-12T05:25:59;6.05;;;3.38;;
12212;SDS011;6169;44.158;22.788;2023-09-12T05:31:03;5.80;;;2.97;;
12212;SDS011;6169;44.158;22.788;2023-09-12T05:36:05;6.43;;;3.40;;
12212;SDS011;6169;44.158;22.788;2023-09-12T05:41:07;7.38;;;3.40;;
12212;SDS011;6169;44.158;22.788;2023-09-12T05:46:11;11.90;;;3.97;;
12212;SDS011;6169;44.158;22.788;2023-09-12T05:51:13;10.70;;;3.80;;
12212;SDS011;6169;44.158;22.788;2023-09-12T05:56:15;16.60;;;3.85;;
12212;SDS011;6169;44.158;22.788;2023-09-12T06:01:19;7.70;;;3.60;;
12212;SDS011;6169;44.158;22.788;2023-09-12T06:06:21;5.85;;;3.88;;
12212;SDS011;6169;44.158;22.788;2023-09-12T06:11:24;7.80;;;3.00;;
12212;SDS011;6169;44.158;22.788;2023-09-12T06:16:27;9.63;;;3.70;;
12212;SDS011;6169;44.158;22.788;2023-09-12T06:21:30;7.32;;;3.47;;
12212;SDS011;6169;44.158;22.788;2023-09-12T06:26:32;7.53;;;4.10;;
12212;SDS011;6169;44.158;22.788;2023-09-12T06:31:36;4.78;;;3.45;;
12212;SDS011;6169;44.158;22.788;2023-09-12T06:36:38;4.97;;;3.25;;
12212;SDS011;6169;44.158;22.788;2023-09-12T06:41:41;7.95;;;3.85;;
12212;SDS011;6169;44.158;22.788;2023-09-12T06:46:45;8.10;;;4.20;;
12212;SDS011;6169;44.158;22.788;2023-09-12T06:51:47;4.50;;;3.72;;
12212;SDS011;6169;44.158;22.788;2023-09-12T06:56:50;7.00;;;5.25;;
12212;SDS011;6169;44.158;22.788;2023-09-12T07:01:53;7.30;;;3.67;;
12212;SDS011;6169;44.158;22.788;2023-09-12T07:06:55;9.40;;;4.20;;
12212;SDS011;6169;44.158;22.788;2023-09-12T07:11:58;9.38;;;4.57;;
12212;SDS011;6169;44.158;22.788;2023-09-12T07:17:01;5.82;;;3.70;;
12212;SDS011;6169;44.158;22.788;2023-09-12T07:22:04;10.07;;;4.07;;
12212;SDS011;6169;44.158;22.788;2023-09-12T07:27:06;6.40;;;3.97;;
12212;SDS011;6169;44.158;22.788;2023-09-12T07:32:10;10.70;;;4.55;;
12212;SDS011;6169;44.158;22.788;2023-09-12T07:37:12;8.48;;;4.13;;
12212;SDS011;6169;44.158;22.788;2023-09-12T07:42:14;9.45;;;4.78;;
12212;SDS011;6169;44.158;22.788;2023-09-12T07:47:18;11.15;;;4.55;;
12212;SDS011;6169;44.158;22.788;2023-09-12T07:52:21;6.60;;;3.60;;
12212;SDS011;6169;44.158;22.788;2023-09-12T07:57:23;5.07;;;3.65;;
12212;SDS011;6169;44.158;22.788;2023-09-12T08:02:26;8.18;;;3.90;;
12212;SDS011;6169;44.158;22.788;2023-09-12T08:07:29;15.40;;;4.60;;
12212;SDS011;6169;44.158;22.788;2023-09-12T08:12:31;8.48;;;3.85;;
12212;SDS011;6169;44.158;22.788;2023-09-12T08:17:34;6.15;;;3.85;;
12212;SDS011;6169;44.158;22.788;2023-09-12T08:22:37;6.63;;;3.55;;
12212;SDS011;6169;44.158;22.788;2023-09-12T08:27:39;6.82;;;3.42;;
12212;SDS011;6169;44.158;22.788;2023-09-12T08:32:45;5.72;;;4.10;;
12212;SDS011;6169;44.158;22.788;2023-09-12T08:37:47;8.20;;;2.83;;
12212;SDS011;6169;44.158;22.788;2023-09-12T08:42:49;8.18;;;3.13;;
12212;SDS011;6169;44.158;22.788;2023-09-12T08:47:55;4.15;;;2.80;;
12212;SDS011;6169;44.158;22.788;2023-09-12T08:53:00;6.53;;;2.30;;
12212;SDS011;6169;44.158;22.788;2023-09-12T08:58:03;7.47;;;1.95;;
12212;SDS011;6169;44.158;22.788;2023-09-12T09:03:08;4.68;;;2.60;;
12212;SDS011;6169;44.158;22.788;2023-09-12T09:08:11;4.20;;;2.13;;
12212;SDS011;6169;44.158;22.788;2023-09-12T09:13:14;4.15;;;2.30;;
12212;SDS011;6169;44.158;22.788;2023-09-12T09:18:18;6.20;;;3.30;;
12212;SDS011;6169;44.158;22.788;2023-09-12T09:23:20;10.10;;;3.33;;
12212;SDS011;6169;44.158;22.788;2023-09-12T09:28:24;3.97;;;2.53;;
12212;SDS011;6169;44.158;22.788;2023-09-12T09:33:28;5.07;;;2.88;;
12212;SDS011;6169;44.158;22.788;2023-09-12T09:38:37;4.18;;;2.65;;
12212;SDS011;6169;44.158;22.788;2023-09-12T09:43:39;11.13;;;3.33;;
12212;SDS011;6169;44.158;22.788;2023-09-12T09:48:43;7.00;;;2.53;;
12212;SDS011;6169;44.158;22.788;2023-09-12T09:53:51;8.95;;;2.13;;
12212;SDS011;6169;44.158;22.788;2023-09-12T09:58:53;5.70;;;2.17;;
12212;SDS011;6169;44.158;22.788;2023-09-12T10:03:58;7.03;;;2.90;;
12212;SDS011;6169;44.158;22.788;2023-09-12T10:09:03;7.15;;;3.17;;
12212;SDS011;6169;44.158;22.788;2023-09-12T10:14:08;7.30;;;3.33;;
12212;SDS011;6169;44.158;22.788;2023-09-12T10:19:15;4.40;;;2.72;;
12212;SDS011;6169;44.158;22.788;2023-09-12T10:24:19;3.97;;;2.67;;
12212;SDS011;6169;44.158;22.788;2023-09-12T10:29:23;8.98;;;3.00;;
12212;SDS011;6169;44.158;22.788;2023-09-12T10:34:27;10.82;;;2.88;;
12212;SDS011;6169;44.158;22.788;2023-09-12T10:39:31;12.63;;;3.20;;
12212;SDS011;6169;44.158;22.788;2023-09-12T10:44:34;9.00;;;2.55;;
12212;SDS011;6169;44.158;22.788;2023-09-12T10:49:38;9.52;;;3.20;;
12212;SDS011;6169;44.158;22.788;2023-09-12T10:54:40;7.43;;;3.15;;
12212;SDS011;6169;44.158;22.788;2023-09-12T11:16:21;4.93;;;2.58;;
12212;SDS011;6169;44.158;22.788;2023-09-12T11:21:32;4.65;;;2.58;;
12212;SDS011;6169;44.158;22.788;2023-09-12T11:26:34;3.17;;;2.13;;
12212;SDS011;6169;44.158;22.788;2023-09-12T11:31:36;6.40;;;2.40;;
12212;SDS011;6169;44.158;22.788;2023-09-12T11:36:44;7.75;;;2.83;;
12212;SDS011;6169;44.158;22.788;2023-09-12T11:41:48;13.90;;;2.97;;
12212;SDS011;6169;44.158;22.788;2023-09-12T11:46:50;9.70;;;3.17;;
12212;SDS011;6169;44.158;22.788;2023-09-12T11:51:54;4.07;;;2.60;;
12212;SDS011;6169;44.158;22.788;2023-09-12T11:56:56;4.95;;;2.50;;
12212;SDS011;6169;44.158;22.788;2023-09-12T12:02:00;9.13;;;2.80;;
12212;SDS011;6169;44.158;22.788;2023-09-12T12:07:04;7.38;;;2.60;;
12212;SDS011;6169;44.158;22.788;2023-09-12T12:12:10;9.27;;;2.92;;
12212;SDS011;6169;44.158;22.788;2023-09-12T12:17:12;9.88;;;2.60;;
12212;SDS011;6169;44.158;22.788;2023-09-12T12:22:16;7.55;;;3.03;;
12212;SDS011;6169;44.158;22.788;2023-09-12T12:27:18;10.48;;;2.75;;
12212;SDS011;6169;44.158;22.788;2023-09-12T12:32:20;6.20;;;2.58;;
12212;SDS011;6169;44.158;22.788;2023-09-12T12:37:27;8.60;;;2.90;;
12212;SDS011;6169;44.158;22.788;2023-09-12T12:42:34;7.57;;;2.30;;
12212;SDS011;6169;44.158;22.788;2023-09-12T12:47:37;6.05;;;2.60;;
12212;SDS011;6169;44.158;22.788;2023-09-12T12:52:41;5.35;;;2.70;;
12212;SDS011;6169;44.158;22.788;2023-09-12T12:57:44;8.18;;;3.13;;
12212;SDS011;6169;44.158;22.788;2023-09-12T13:02:46;7.97;;;2.63;;
12212;SDS011;6169;44.158;22.788;2023-09-12T13:07:50;9.98;;;3.17;;
12212;SDS011;6169;44.158;22.788;2023-09-12T13:12:52;7.78;;;2.95;;
12212;SDS011;6169;44.158;22.788;2023-09-12T13:17:54;9.15;;;2.65;;
12212;SDS011;6169;44.158;22.788;2023-09-12T13:22:58;3.55;;;2.00;;
12212;SDS011;6169;44.158;22.788;2023-09-12T13:28:00;6.35;;;2.33;;
12212;SDS011;6169;44.158;22.788;2023-09-12T13:33:02;17.13;;;3.33;;
12212;SDS011;6169;44.158;22.788;2023-09-12T13:38:06;11.10;;;2.95;;
12212;SDS011;6169;44.158;22.788;2023-09-12T13:43:09;7.68;;;2.60;;
12212;SDS011;6169;44.158;22.788;2023-09-12T13:48:12;9.73;;;2.88;;
12212;SDS011;6169;44.158;22.788;2023-09-12T13:53:15;10.57;;;2.58;;
12212;SDS011;6169;44.158;22.788;2023-09-12T13:58:17;11.02;;;2.80;;
12212;SDS011;6169;44.158;22.788;2023-09-12T14:03:19;6.65;;;2.47;;
12212;SDS011;6169;44.158;22.788;2023-09-12T14:08:23;3.58;;;2.42;;
12212;SDS011;6169;44.158;22.788;2023-09-12T14:13:25;9.32;;;5.97;;
12212;SDS011;6169;44.158;22.788;2023-09-12T14:18:27;48.60;;;33.75;;
12212;SDS011;6169;44.158;22.788;2023-09-12T14:23:31;81.15;;;56.25;;
12212;SDS011;6169;44.158;22.788;2023-09-12T14:28:33;123.63;;;79.72;;
12212;SDS011;6169;44.158;22.788;2023-09-12T14:33:35;43.70;;;25.25;;
12212;SDS011;6169;44.158;22.788;2023-09-12T14:38:39;14.90;;;6.22;;
12212;SDS011;6169;44.158;22.788;2023-09-12T14:43:41;8.00;;;3.50;;
12212;SDS011;6169;44.158;22.788;2023-09-12T14:48:43;7.20;;;4.03;;
12212;SDS011;6169;44.158;22.788;2023-09-12T14:53:46;10.15;;;3.80;;
12212;SDS011;6169;44.158;22.788;2023-09-12T14:58:49;7.88;;;3.03;;
12212;SDS011;6169;44.158;22.788;2023-09-12T15:03:51;8.40;;;3.05;;
12212;SDS011;6169;44.158;22.788;2023-09-12T15:08:54;12.18;;;3.20;;
12212;SDS011;6169;44.158;22.788;2023-09-12T15:13:57;6.03;;;2.70;;
12212;SDS011;6169;44.158;22.788;2023-09-12T15:18:59;8.90;;;3.13;;
12212;SDS011;6169;44.158;22.788;2023-09-12T15:24:03;7.90;;;2.35;;
12212;SDS011;6169;44.158;22.788;2023-09-12T15:29:05;7.78;;;2.55;;
12212;SDS011;6169;44.158;22.788;2023-09-12T15:34:08;8.10;;;2.67;;
12212;SDS011;6169;44.158;22.788;2023-09-12T15:39:11;5.93;;;2.17;;
12212;SDS011;6169;44.158;22.788;2023-09-12T15:44:14;8.43;;;2.60;;
12212;SDS011;6169;44.158;22.788;2023-09-12T15:49:16;10.18;;;2.40;;
12212;SDS011;6169;44.158;22.788;2023-09-12T15:54:19;5.20;;;2.45;;
12212;SDS011;6169;44.158;22.788;2023-09-12T15:59:21;6.47;;;2.63;;
12212;SDS011;6169;44.158;22.788;2023-09-12T16:04:25;11.35;;;2.78;;
12212;SDS011;6169;44.158;22.788;2023-09-12T16:09:29;5.45;;;2.45;;
12212;SDS011;6169;44.158;22.788;2023-09-12T16:14:31;6.60;;;2.70;;
12212;SDS011;6169;44.158;22.788;2023-09-12T16:19:33;5.20;;;2.92;;
12212;SDS011;6169;44.158;22.788;2023-09-12T16:24:37;9.30;;;3.10;;
12212;SDS011;6169;44.158;22.788;2023-09-12T16:29:39;10.30;;;3.53;;
12212;SDS011;6169;44.158;22.788;2023-09-12T16:34:41;10.52;;;3.42;;
12212;SDS011;6169;44.158;22.788;2023-09-12T16:39:46;17.08;;;4.60;;
12212;SDS011;6169;44.158;22.788;2023-09-12T16:44:48;18.90;;;6.40;;
12212;SDS011;6169;44.158;22.788;2023-09-12T16:49:50;21.15;;;9.32;;
12212;SDS011;6169;44.158;22.788;2023-09-12T16:54:53;31.42;;;13.88;;
12212;SDS011;6169;44.158;22.788;2023-09-12T16:59:55;69.03;;;28.70;;
12212;SDS011;6169;44.158;22.788;2023-09-12T17:04:58;45.00;;;18.67;;
12212;SDS011;6169;44.158;22.788;2023-09-12T17:10:01;47.65;;;16.38;;
12212;SDS011;6169;44.158;22.788;2023-09-12T17:15:04;46.45;;;16.55;;
12212;SDS011;6169;44.158;22.788;2023-09-12T17:20:08;45.75;;;15.48;;
12212;SDS011;6169;44.158;22.788;2023-09-12T17:25:12;36.65;;;12.85;;
12212;SDS011;6169;44.158;22.788;2023-09-12T17:30:14;43.58;;;10.95;;
12212;SDS011;6169;44.158;22.788;2023-09-12T17:35:16;28.60;;;9.27;;
12212;SDS011;6169;44.158;22.788;2023-09-12T17:40:21;27.23;;;8.85;;
12212;SDS011;6169;44.158;22.788;2023-09-12T17:45:23;32.78;;;11.48;;
12212;SDS011;6169;44.158;22.788;2023-09-12T17:50:25;23.25;;;6.45;;
12212;SDS011;6169;44.158;22.788;2023-09-12T17:55:30;20.48;;;5.85;;
12212;SDS011;6169;44.158;22.788;2023-09-12T18:00:33;19.00;;;5.88;;
12212;SDS011;6169;44.158;22.788;2023-09-12T18:05:36;15.75;;;4.50;;
12212;SDS011;6169;44.158;22.788;2023-09-12T18:10:39;27.20;;;10.98;;
12212;SDS011;6169;44.158;22.788;2023-09-12T18:15:41;28.98;;;9.48;;
12212;SDS011;6169;44.158;22.788;2023-09-12T18:20:43;43.60;;;11.15;;
12212;SDS011;6169;44.158;22.788;2023-09-12T18:25:47;28.10;;;8.50;;
12212;SDS011;6169;44.158;22.788;2023-09-12T18:30:50;40.20;;;9.75;;
12212;SDS011;6169;44.158;22.788;2023-09-12T18:35:53;38.20;;;9.38;;
12212;SDS011;6169;44.158;22.788;2023-09-12T18:40:57;37.20;;;10.38;;
12212;SDS011;6169;44.158;22.788;2023-09-12T18:45:59;33.10;;;8.48;;
12212;SDS011;6169;44.158;22.788;2023-09-12T18:51:01;38.60;;;8.82;;
12212;SDS011;6169;44.158;22.788;2023-09-12T18:56:04;24.48;;;9.75;;
12212;SDS011;6169;44.158;22.788;2023-09-12T19:01:07;24.33;;;8.88;;
12212;SDS011;6169;44.158;22.788;2023-09-12T19:06:10;25.23;;;9.65;;
12212;SDS011;6169;44.158;22.788;2023-09-12T19:11:13;35.90;;;10.43;;
12212;SDS011;6169;44.158;22.788;2023-09-12T19:16:16;49.95;;;10.98;;
12212;SDS011;6169;44.158;22.788;2023-09-12T19:21:19;33.25;;;10.18;;
12212;SDS011;6169;44.158;22.788;2023-09-12T19:26:22;31.33;;;11.38;;
12212;SDS011;6169;44.158;22.788;2023-09-12T19:31:24;39.55;;;11.38;;
12212;SDS011;6169;44.158;22.788;2023-09-12T19:36:26;44.30;;;13.27;;
12212;SDS011;6169;44.158;22.788;2023-09-12T19:41:31;36.03;;;11.93;;
12212;SDS011;6169;44.158;22.788;2023-09-12T19:46:33;32.58;;;10.63;;
12212;SDS011;6169;44.158;22.788;2023-09-12T19:51:40;30.17;;;10.63;;
12212;SDS011;6169;44.158;22.788;2023-09-12T19:56:45;21.27;;;7.30;;
12212;SDS011;6169;44.158;22.788;2023-09-12T20:01:47;30.50;;;7.32;;
12212;SDS011;6169;44.158;22.788;2023-09-12T20:06:50;19.52;;;5.90;;
12212;SDS011;6169;44.158;22.788;2023-09-12T20:11:53;29.73;;;5.53;;
12212;SDS011;6169;44.158;22.788;2023-09-12T20:16:57;23.30;;;4.72;;
12212;SDS011;6169;44.158;22.788;2023-09-12T20:21:59;25.95;;;6.20;;
12212;SDS011;6169;44.158;22.788;2023-09-12T20:27:03;15.18;;;4.57;;
12212;SDS011;6169;44.158;22.788;2023-09-12T20:32:07;19.02;;;4.93;;
12212;SDS011;6169;44.158;22.788;2023-09-12T20:37:09;26.58;;;4.82;;
12212;SDS011;6169;44.158;22.788;2023-09-12T20:42:13;15.18;;;4.78;;
12212;SDS011;6169;44.158;22.788;2023-09-12T20:47:15;14.13;;;3.88;;
12212;SDS011;6169;44.158;22.788;2023-09-12T20:52:20;12.90;;;4.65;;
12212;SDS011;6169;44.158;22.788;2023-09-12T20:57:23;13.88;;;3.83;;
12212;SDS011;6169;44.158;22.788;2023-09-12T21:02:26;16.27;;;4.13;;
12212;SDS011;6169;44.158;22.788;2023-09-12T21:07:28;18.45;;;4.50;;
12212;SDS011;6169;44.158;22.788;2023-09-12T21:12:31;11.13;;;4.32;;
12212;SDS011;6169;44.158;22.788;2023-09-12T21:17:34;9.32;;;3.67;;
12212;SDS011;6169;44.158;22.788;2023-09-12T21:22:37;19.30;;;4.07;;
12212;SDS011;6169;44.158;22.788;2023-09-12T21:27:41;13.02;;;4.75;;
12212;SDS011;6169;44.158;22.788;2023-09-12T21:32:43;11.98;;;3.75;;
12212;SDS011;6169;44.158;22.788;2023-09-12T21:37:45;8.93;;;3.15;;
12212;SDS011;6169;44.158;22.788;2023-09-12T21:42:49;15.90;;;3.95;;
12212;SDS011;6169;44.158;22.788;2023-09-12T21:47:52;11.23;;;3.22;;
12212;SDS011;6169;44.158;22.788;2023-09-12T21:52:54;9.07;;;3.60;;
12212;SDS011;6169;44.158;22.788;2023-09-12T21:57:57;12.25;;;5.22;;
12212;SDS011;6169;44.158;22.788;2023-09-12T22:03:00;16.85;;;3.72;;
12212;SDS011;6169;44.158;22.788;2023-09-12T22:08:03;10.25;;;3.33;;
12212;SDS011;6169;44.158;22.788;2023-09-12T22:13:08;11.25;;;3.97;;
12212;SDS011;6169;44.158;22.788;2023-09-12T22:18:10;7.57;;;3.33;;
12212;SDS011;6169;44.158;22.788;2023-09-12T22:23:12;11.15;;;4.25;;
12212;SDS011;6169;44.158;22.788;2023-09-12T22:28:16;13.95;;;4.30;;
12212;SDS011;6169;44.158;22.788;2023-09-12T22:33:18;7.68;;;3.20;;
12212;SDS011;6169;44.158;22.788;2023-09-12T22:38:20;11.55;;;3.58;;
12212;SDS011;6169;44.158;22.788;2023-09-12T22:43:24;11.25;;;4.05;;
12212;SDS011;6169;44.158;22.788;2023-09-12T22:48:27;10.75;;;3.08;;
12212;SDS011;6169;44.158;22.788;2023-09-12T22:53:29;8.88;;;3.65;;
12212;SDS011;6169;44.158;22.788;2023-09-12T22:58:33;14.60;;;4.22;;
12212;SDS011;6169;44.158;22.788;2023-09-12T23:03:35;8.18;;;3.03;;
12212;SDS011;6169;44.158;22.788;2023-09-12T23:08:37;6.65;;;3.65;;
12212;SDS011;6169;44.158;22.788;2023-09-12T23:13:41;9.57;;;3.20;;
12212;SDS011;6169;44.158;22.788;2023-09-12T23:18:43;10.23;;;3.28;;
12212;SDS011;6169;44.158;22.788;2023-09-12T23:23:45;6.38;;;3.08;;
12212;SDS011;6169;44.158;22.788;2023-09-12T23:28:49;11.68;;;2.97;;
12212;SDS011;6169;44.158;22.788;2023-09-12T23:33:51;9.32;;;3.40;;
12212;SDS011;6169;44.158;22.788;2023-09-12T23:38:53;9.05;;;3.10;;
12212;SDS011;6169;44.158;22.788;2023-09-12T23:43:57;7.07;;;3.28;;
12212;SDS011;6169;44.158;22.788;2023-09-12T23:48:59;5.45;;;2.88;;
12212;SDS011;6169;44.158;22.788;2023-09-12T23:54:03;5.82;;;3.00;;
12212;SDS011;6169;44.158;22.788;2023-09-12T23:59:07;9.32;;;4.05;;
